Time;durP1;ratioP1;P1;durP2;ratioP2;P2;SDS_P1;SDS_P2;PMS_P1;PMS_P2;Temp;Humidity;BMP_temperature;BMP_pressure;BME280_temperature;BME280_humidity;BME280_pressure;Samples;Min_cycle;Max_cycle;Signal;HPM_P1;HPM_P2
2022/07/21 00:00:26;;;;;;;;;;;;;;;26.54;53.64;100517.59;5019173;28;1223;-87
2022/07/21 00:02:52;;;;;;;;;;;;;;;26.75;53.10;100518.56;5040294;28;984;-89
2022/07/21 00:05:17;;;;;;;;;;;;;;;26.82;53.19;100522.63;5032121;28;1726;-88
2022/07/21 00:07:43;;;;;;;;;;;;;;;26.80;53.30;100517.38;5050275;28;1961;-87
2022/07/21 00:10:08;;;;;;;;;;;;;;;26.87;52.57;100522.28;5017774;28;1429;-87
2022/07/21 00:12:33;;;;;;;;;;;;;;;26.84;53.14;100540.69;5035040;28;909;-88
2022/07/21 00:14:58;;;;;;;;;;;;;;;26.56;53.18;100532.84;5039630;28;1418;-88
2022/07/21 00:17:24;;;;;;;;;;;;;;;26.49;53.68;100534.78;5018027;28;1246;-88
2022/07/21 00:19:49;;;;;;;;;;;;;;;26.48;54.31;100547.19;5016375;28;1348;-88
2022/07/21 00:22:14;;;;;;;;;;;;;;;26.35;54.97;100538.28;5034026;28;1285;-88
2022/07/21 00:24:39;;;;;;;;;;;;;;;26.23;55.96;100533.72;5027433;28;1678;-88
2022/07/21 00:27:04;;;;;;;;;;;;;;;26.29;55.84;100528.56;5024227;28;1898;-88
2022/07/21 00:29:29;;;;;;;;;;;;;;;25.94;55.83;100513.00;5026119;28;1287;-88
2022/07/21 00:31:54;;;;;;;;;;;;;;;26.21;55.71;100524.88;5016843;28;1519;-88
2022/07/21 00:34:20;;;;;;;;;;;;;;;26.22;54.81;100522.88;5023669;28;1404;-88
2022/07/21 00:36:45;;;;;;;;;;;;;;;26.24;55.24;100532.53;5026133;28;1392;-88
2022/07/21 00:39:10;;;;;;;;;;;;;;;26.17;55.28;100537.25;5026395;28;1000;-88
2022/07/21 00:41:35;;;;;;;;;;;;;;;26.09;56.40;100530.78;5016740;28;1250;-88
2022/07/21 00:44:00;;;;;;;;;;;;;;;26.02;55.67;100541.13;5021896;28;1353;-88
2022/07/21 00:46:26;;;;;;;;;;;;;;;26.01;56.90;100534.69;5048644;28;1945;-88
2022/07/21 00:48:51;;;;;;;;;;;;;;;26.02;55.96;100535.50;5016562;28;1269;-88
2022/07/21 00:51:16;;;;;;;;;;;;;;;25.68;56.81;100529.91;5043949;28;1139;-88
2022/07/21 00:53:41;;;;;;;;;;;;;;;25.29;58.05;100517.34;5036901;28;2102;-88
2022/07/21 00:56:07;;;;;;;;;;;;;;;25.26;58.72;100519.69;5024288;28;1709;-88
2022/07/21 00:58:32;;;;;;;;;;;;;;;25.44;58.12;100539.56;5033858;28;1485;-89
2022/07/21 01:00:57;;;;;;;;;;;;;;;25.56;58.18;100547.75;5013806;28;1398;-88
2022/07/21 01:03:23;;;;;;;;;;;;;;;25.50;58.81;100556.88;5017487;28;1310;-88
2022/07/21 01:05:48;;;;;;;;;;;;;;;25.19;60.06;100572.03;5024780;28;1957;-87
2022/07/21 01:08:14;;;;;;;;;;;;;;;25.36;60.54;100559.47;5015760;28;1221;-88
2022/07/21 01:10:40;;;;;;;;;;;;;;;25.23;60.83;100517.69;5000061;28;1336;-88
2022/07/21 01:13:05;;;;;;;;;;;;;;;24.86;62.06;100489.50;5023895;28;1208;-87
2022/07/21 01:15:30;;;;;;;;;;;;;;;24.36;64.05;100509.47;5053277;28;1220;-87
2022/07/21 01:17:56;;;;;;;;;;;;;;;24.84;63.57;100513.44;5013164;28;1239;-87
2022/07/21 01:20:22;;;;;;;;;;;;;;;24.47;65.13;100510.47;5025923;28;1591;-88
2022/07/21 01:22:48;;;;;;;;;;;;;;;24.34;66.12;100493.03;5021239;28;1227;-88
2022/07/21 01:25:14;;;;;;;;;;;;;;;24.72;65.97;100508.88;5019221;28;1464;-88
2022/07/21 01:27:39;;;;;;;;;;;;;;;24.58;65.82;100494.66;5030687;28;1867;-88
2022/07/21 01:30:07;;;;;;;;;;;;;;;24.60;66.10;100478.28;5044362;28;1343;-87
2022/07/21 01:32:33;;;;;;;;;;;;;;;24.54;65.87;100478.97;5031263;28;1523;-87
2022/07/21 01:34:58;;;;;;;;;;;;;;;24.30;66.80;100495.00;5020800;28;1337;-87
2022/07/21 01:37:26;;;;;;;;;;;;;;;24.48;66.37;100503.69;5011659;28;1294;-87
2022/07/21 01:42:36;;;;;;;;;;;;;;;24.56;66.22;100474.63;5041444;28;1512;-88
2022/07/21 01:45:01;;;;;;;;;;;;;;;24.46;66.32;100478.88;5038866;28;1377;-88
2022/07/21 01:47:26;;;;;;;;;;;;;;;24.39;66.64;100491.94;5019576;28;1938;-88
2022/07/21 01:49:52;;;;;;;;;;;;;;;24.50;66.98;100499.31;5010497;28;1326;-88
2022/07/21 01:52:17;;;;;;;;;;;;;;;24.51;66.48;100505.72;5018599;28;1339;-88
2022/07/21 01:54:42;;;;;;;;;;;;;;;24.23;67.11;100489.28;5027044;28;1395;-87
2022/07/21 01:57:07;;;;;;;;;;;;;;;23.97;67.88;100503.13;5013775;28;1339;-86
2022/07/21 01:59:32;;;;;;;;;;;;;;;23.96;68.71;100490.34;5016513;28;1208;-87
2022/07/21 02:01:58;;;;;;;;;;;;;;;24.32;67.35;100492.63;5025985;28;1769;-86
2022/07/21 02:04:23;;;;;;;;;;;;;;;24.12;67.91;100479.84;5026783;28;1568;-86
2022/07/21 02:06:48;;;;;;;;;;;;;;;24.42;67.49;100479.97;5036367;28;1965;-86
2022/07/21 02:09:13;;;;;;;;;;;;;;;24.35;67.61;100472.28;5035849;28;1451;-86
2022/07/21 02:11:38;;;;;;;;;;;;;;;24.13;68.59;100464.69;5029703;28;1738;-86
2022/07/21 02:14:03;;;;;;;;;;;;;;;23.73;70.13;100468.72;5034293;28;1292;-86
2022/07/21 02:16:29;;;;;;;;;;;;;;;24.10;68.91;100485.00;5027600;28;1695;-87
2022/07/21 02:18:54;;;;;;;;;;;;;;;24.30;68.24;100489.41;5033856;28;1542;-86
2022/07/21 02:21:19;;;;;;;;;;;;;;;24.27;68.89;100476.13;5029213;28;1733;-87
2022/07/21 02:23:44;;;;;;;;;;;;;;;24.25;68.35;100486.88;5017096;28;1311;-87
2022/07/21 02:26:09;;;;;;;;;;;;;;;24.24;68.02;100490.09;5040442;28;1940;-87
2022/07/21 02:28:35;;;;;;;;;;;;;;;24.28;68.13;100474.16;5009824;28;1250;-86
2022/07/21 02:31:00;;;;;;;;;;;;;;;24.40;67.89;100455.19;5035766;28;1283;-87
2022/07/21 02:33:25;;;;;;;;;;;;;;;24.37;68.08;100452.31;5018076;28;1394;-87
2022/07/21 02:35:50;;;;;;;;;;;;;;;24.38;68.62;100457.56;5017897;28;1629;-87
2022/07/21 02:38:16;;;;;;;;;;;;;;;24.26;69.06;100454.94;5035934;28;1459;-87
2022/07/21 02:40:41;;;;;;;;;;;;;;;24.24;68.53;100446.13;5035630;28;1384;-88
2022/07/21 02:43:06;;;;;;;;;;;;;;;24.13;69.81;100445.09;5036219;28;1500;-87
2022/07/21 02:45:32;;;;;;;;;;;;;;;24.19;68.81;100453.97;5045706;28;1269;-86
2022/07/21 02:48:01;;;;;;;;;;;;;;;24.01;70.23;100456.47;5017833;28;1953;-87
2022/07/21 02:50:27;;;;;;;;;;;;;;;23.63;71.25;100465.75;5035963;28;1185;-87
2022/07/21 02:52:56;;;;;;;;;;;;;;;23.56;71.31;100460.81;5017416;28;1338;-86
2022/07/21 02:55:22;;;;;;;;;;;;;;;23.56;71.24;100474.78;5012617;28;1308;-87
2022/07/21 02:57:47;;;;;;;;;;;;;;;23.66;71.05;100479.78;5049730;28;1177;-87
2022/07/21 03:00:14;;;;;;;;;;;;;;;23.65;71.33;100502.50;5028505;28;1438;-86
2022/07/21 03:02:39;;;;;;;;;;;;;;;23.42;71.77;100505.19;5021920;28;1722;-86
2022/07/21 03:05:06;;;;;;;;;;;;;;;23.49;70.82;100510.16;5032553;28;1423;-88
2022/07/21 03:07:31;;;;;;;;;;;;;;;23.42;71.37;100527.53;5017346;28;1949;-87
2022/07/21 03:09:56;;;;;;;;;;;;;;;23.21;71.60;100541.06;5035230;28;1766;-87
2022/07/21 03:12:21;;;;;;;;;;;;;;;23.11;71.97;100548.00;5017238;28;1765;-87
2022/07/21 03:14:46;;;;;;;;;;;;;;;22.99;73.44;100543.34;5031138;28;1697;-87
2022/07/21 03:17:12;;;;;;;;;;;;;;;23.08;72.67;100545.94;5016933;28;1491;-87
2022/07/21 03:19:37;;;;;;;;;;;;;;;23.13;72.32;100537.28;5013681;28;1859;-87
2022/07/21 03:22:02;;;;;;;;;;;;;;;23.16;71.36;100541.31;5005005;28;1555;-87
2022/07/21 03:24:29;;;;;;;;;;;;;;;23.27;70.11;100539.59;5024270;28;1490;-87
2022/07/21 03:26:54;;;;;;;;;;;;;;;23.44;70.68;100539.16;5005084;28;1902;-87
2022/07/21 03:29:19;;;;;;;;;;;;;;;23.59;69.04;100531.91;5018449;28;1749;-87
2022/07/21 03:31:44;;;;;;;;;;;;;;;23.53;68.51;100528.63;5006381;28;1503;-87
2022/07/21 03:34:09;;;;;;;;;;;;;;;23.49;69.74;100527.72;5022084;28;1777;-87
2022/07/21 03:36:34;;;;;;;;;;;;;;;23.29;70.22;100540.03;5032056;28;1816;-87
2022/07/21 03:39:00;;;;;;;;;;;;;;;23.43;70.10;100540.34;5013790;28;1634;-87
2022/07/21 03:41:25;;;;;;;;;;;;;;;23.17;70.14;100554.91;5017276;28;1456;-87
2022/07/21 03:43:50;;;;;;;;;;;;;;;22.86;71.32;100557.78;5024919;28;1557;-86
2022/07/21 03:46:15;;;;;;;;;;;;;;;23.02;71.74;100548.22;5019090;28;1901;-87
2022/07/21 03:48:40;;;;;;;;;;;;;;;22.90;71.19;100548.31;5033957;28;1598;-85
2022/07/21 03:51:05;;;;;;;;;;;;;;;23.15;71.16;100546.09;5005246;28;1315;-86
2022/07/21 03:53:31;;;;;;;;;;;;;;;23.18;70.40;100556.53;5034942;28;1777;-87
2022/07/21 03:55:56;;;;;;;;;;;;;;;23.14;71.37;100561.22;5016402;28;1332;-86
2022/07/21 03:58:21;;;;;;;;;;;;;;;22.94;72.34;100563.16;5034739;28;1702;-87
2022/07/21 04:00:46;;;;;;;;;;;;;;;22.99;71.54;100568.47;5034604;28;1611;-87
2022/07/21 04:03:12;;;;;;;;;;;;;;;23.09;70.82;100564.31;5013551;28;1701;-87
2022/07/21 04:05:38;;;;;;;;;;;;;;;23.09;71.84;100575.47;5039684;28;1504;-87
2022/07/21 04:08:04;;;;;;;;;;;;;;;23.02;71.36;100578.09;5016947;28;1893;-86
2022/07/21 04:10:30;;;;;;;;;;;;;;;23.14;70.91;100574.41;5015789;28;1463;-88
2022/07/21 04:12:56;;;;;;;;;;;;;;;22.81;72.96;100572.00;5016902;28;1520;-89
2022/07/21 04:15:21;;;;;;;;;;;;;;;22.84;71.98;100588.84;5025426;28;1594;-89
2022/07/21 04:17:48;;;;;;;;;;;;;;;22.92;71.97;100596.22;5021505;28;1420;-89
2022/07/21 04:20:13;;;;;;;;;;;;;;;22.93;72.84;100597.03;5017466;28;1320;-88
2022/07/21 04:22:39;;;;;;;;;;;;;;;23.11;72.24;100601.06;5036451;28;1773;-88
2022/07/21 04:25:05;;;;;;;;;;;;;;;23.16;71.05;100594.38;5040561;28;1303;-89
2022/07/21 04:27:31;;;;;;;;;;;;;;;23.02;72.90;100587.28;5017231;28;1949;-87
2022/07/21 04:29:57;;;;;;;;;;;;;;;22.96;73.73;100585.97;5037811;28;1079;-87
2022/07/21 04:32:22;;;;;;;;;;;;;;;22.84;74.14;100588.03;5017046;28;1651;-86
2022/07/21 04:34:47;;;;;;;;;;;;;;;22.97;74.01;100595.94;5017283;28;1273;-88
2022/07/21 04:37:13;;;;;;;;;;;;;;;22.95;73.93;100595.50;5016834;28;881;-88
2022/07/21 04:39:39;;;;;;;;;;;;;;;23.07;72.97;100604.94;5046728;28;1157;-88
2022/07/21 04:42:05;;;;;;;;;;;;;;;23.14;73.36;100608.69;5036780;28;1328;-89
2022/07/21 04:44:31;;;;;;;;;;;;;;;23.16;73.89;100605.53;5019964;28;1748;-88
2022/07/21 04:46:56;;;;;;;;;;;;;;;22.96;73.24;100605.50;5046352;28;1964;-89
2022/07/21 04:49:21;;;;;;;;;;;;;;;22.82;73.96;100605.13;5018242;28;1459;-87
2022/07/21 04:51:46;;;;;;;;;;;;;;;22.79;74.39;100608.66;4997568;28;1689;-87
2022/07/21 04:54:13;;;;;;;;;;;;;;;22.75;75.54;100610.53;5018301;28;1542;-87
2022/07/21 04:56:39;;;;;;;;;;;;;;;22.75;74.51;100615.31;5026012;28;1743;-87
2022/07/21 04:59:04;;;;;;;;;;;;;;;22.62;75.88;100615.38;5034276;28;1824;-88
2022/07/21 05:01:29;;;;;;;;;;;;;;;22.65;75.24;100605.44;5046693;28;1189;-87
2022/07/21 05:03:55;;;;;;;;;;;;;;;22.72;75.06;100602.84;5019578;28;1683;-86
2022/07/21 05:06:20;;;;;;;;;;;;;;;22.72;73.47;100596.44;5032960;28;1924;-88
2022/07/21 05:08:45;;;;;;;;;;;;;;;22.78;73.96;100604.25;5038898;28;1812;-88
2022/07/21 05:11:10;;;;;;;;;;;;;;;22.79;74.05;100602.25;5015808;28;885;-87
2022/07/21 05:13:35;;;;;;;;;;;;;;;22.74;74.29;100606.13;5044035;28;1339;-88
2022/07/21 05:16:01;;;;;;;;;;;;;;;22.72;73.79;100610.41;5035458;28;1168;-88
2022/07/21 05:18:26;;;;;;;;;;;;;;;22.63;74.30;100608.59;5035432;28;1311;-88
2022/07/21 05:20:51;;;;;;;;;;;;;;;22.70;73.62;100609.97;5021542;28;1386;-89
2022/07/21 05:23:16;;;;;;;;;;;;;;;22.68;74.11;100613.13;5022827;28;1229;-90
2022/07/21 05:25:41;;;;;;;;;;;;;;;22.85;74.08;100611.97;5015386;28;1145;-88
2022/07/21 05:28:07;;;;;;;;;;;;;;;22.85;73.44;100610.00;5024442;28;1941;-89
2022/07/21 05:30:32;;;;;;;;;;;;;;;22.62;74.70;100604.22;5011485;28;1447;-88
2022/07/21 05:32:57;;;;;;;;;;;;;;;22.63;75.63;100607.78;5032916;28;988;-88
2022/07/21 05:35:22;;;;;;;;;;;;;;;22.64;73.48;100613.00;5015075;28;1586;-88
2022/07/21 05:37:47;;;;;;;;;;;;;;;22.59;72.89;100613.28;5021876;28;1165;-89
2022/07/21 05:40:13;;;;;;;;;;;;;;;22.69;73.14;100606.38;5023669;28;1733;-89
2022/07/21 05:42:39;;;;;;;;;;;;;;;22.63;73.71;100608.59;5045626;28;1051;-88
2022/07/21 05:45:05;;;;;;;;;;;;;;;22.72;72.51;100604.81;5029427;28;1590;-88
2022/07/21 05:47:31;;;;;;;;;;;;;;;22.37;73.27;100599.13;5033090;28;1902;-88
2022/07/21 05:49:56;;;;;;;;;;;;;;;22.23;75.08;100599.53;5018998;28;1454;-88
2022/07/21 05:52:21;;;;;;;;;;;;;;;22.46;74.10;100599.75;5022058;28;1189;-89
2022/07/21 05:54:46;;;;;;;;;;;;;;;22.55;72.92;100595.63;5013226;28;1416;-89
2022/07/21 05:57:12;;;;;;;;;;;;;;;22.42;73.36;100608.03;5045640;28;1150;-89
2022/07/21 05:59:37;;;;;;;;;;;;;;;22.25;74.14;100608.38;5046133;28;1678;-88
2022/07/21 06:02:02;;;;;;;;;;;;;;;22.34;72.92;100606.22;5027007;28;1641;-88
2022/07/21 06:04:27;;;;;;;;;;;;;;;22.13;74.26;100600.06;5011240;28;1315;-88
2022/07/21 06:06:53;;;;;;;;;;;;;;;22.32;73.95;100600.19;5022566;28;1894;-89
2022/07/21 06:09:18;;;;;;;;;;;;;;;22.46;73.94;100605.34;5018860;28;1589;-89
2022/07/21 06:11:43;;;;;;;;;;;;;;;22.31;73.28;100603.34;5048503;28;1591;-89
2022/07/21 06:14:08;;;;;;;;;;;;;;;22.31;73.61;100606.94;5026286;28;1274;-88
2022/07/21 06:16:34;;;;;;;;;;;;;;;22.43;73.80;100615.25;5035951;28;1313;-89
2022/07/21 06:19:01;;;;;;;;;;;;;;;22.17;73.48;100615.72;5016316;28;1293;-89
2022/07/21 06:21:26;;;;;;;;;;;;;;;22.04;74.89;100613.34;5035806;28;1868;-90
2022/07/21 06:23:52;;;;;;;;;;;;;;;22.16;75.08;100611.31;5053208;28;1290;-89
2022/07/21 06:26:17;;;;;;;;;;;;;;;22.22;74.55;100612.66;5034976;28;1914;-89
2022/07/21 06:28:43;;;;;;;;;;;;;;;22.24;74.68;100613.13;5022627;28;1281;-88
2022/07/21 06:31:08;;;;;;;;;;;;;;;22.20;75.57;100615.00;5026935;28;1372;-88
2022/07/21 06:33:33;;;;;;;;;;;;;;;22.43;73.55;100620.00;5037468;28;1203;-88
2022/07/21 06:35:58;;;;;;;;;;;;;;;22.39;75.05;100624.66;5024478;28;1685;-89
2022/07/21 06:38:23;;;;;;;;;;;;;;;22.41;75.34;100639.88;5054478;28;1090;-88
2022/07/21 06:40:48;;;;;;;;;;;;;;;22.46;75.76;100647.19;5025608;28;1609;-88
2022/07/21 06:43:13;;;;;;;;;;;;;;;22.30;74.69;100641.56;5035292;28;877;-88
2022/07/21 06:45:39;;;;;;;;;;;;;;;22.18;73.13;100652.78;5039671;28;1480;-89
2022/07/21 06:48:05;;;;;;;;;;;;;;;22.05;74.45;100643.66;5025488;28;1898;-88
2022/07/21 06:50:30;;;;;;;;;;;;;;;22.31;74.81;100656.31;5042588;28;1277;-89
2022/07/21 06:52:55;;;;;;;;;;;;;;;22.42;74.22;100657.44;5050928;28;1217;-87
2022/07/21 06:55:21;;;;;;;;;;;;;;;22.61;72.57;100660.38;5022528;28;1518;-89
2022/07/21 06:57:46;;;;;;;;;;;;;;;22.72;73.44;100672.59;4998521;28;1279;-88
2022/07/21 07:00:11;;;;;;;;;;;;;;;22.53;73.85;100675.28;5023436;28;1654;-89
2022/07/21 07:02:36;;;;;;;;;;;;;;;22.71;73.85;100675.78;5052636;28;1248;-89
2022/07/21 07:05:02;;;;;;;;;;;;;;;22.79;72.68;100675.63;5024179;28;1841;-90
2022/07/21 07:07:29;;;;;;;;;;;;;;;22.58;74.03;100683.38;5029117;28;1965;-89
2022/07/21 07:09:54;;;;;;;;;;;;;;;22.67;74.14;100684.03;5031367;28;1184;-88
2022/07/21 07:12:19;;;;;;;;;;;;;;;22.81;73.90;100692.00;5026480;28;1543;-89
2022/07/21 07:14:44;;;;;;;;;;;;;;;22.64;73.69;100688.34;5021887;28;1434;-89
2022/07/21 07:17:10;;;;;;;;;;;;;;;22.53;73.93;100684.47;5032183;28;1067;-89
2022/07/21 07:19:35;;;;;;;;;;;;;;;22.65;72.75;100678.81;5022607;28;1712;-89
2022/07/21 07:22:01;;;;;;;;;;;;;;;22.71;71.89;100687.75;4999029;28;1087;-89
2022/07/21 07:24:26;;;;;;;;;;;;;;;22.75;72.05;100688.66;5012582;28;1305;-89
2022/07/21 07:26:51;;;;;;;;;;;;;;;22.75;71.93;100694.25;5032404;28;1875;-89
2022/07/21 07:29:16;;;;;;;;;;;;;;;22.71;72.61;100704.50;5007546;28;1448;-89
2022/07/21 07:31:41;;;;;;;;;;;;;;;22.45;72.21;100690.22;5041490;28;1400;-91
2022/07/21 07:34:07;;;;;;;;;;;;;;;22.29;71.03;100692.94;5012413;28;1788;-88
2022/07/21 07:36:32;;;;;;;;;;;;;;;22.28;70.73;100685.75;5013613;28;1643;-91
2022/07/21 07:38:57;;;;;;;;;;;;;;;22.63;71.09;100691.50;5017973;28;1453;-88
2022/07/21 07:41:24;;;;;;;;;;;;;;;22.61;71.10;100688.28;5020077;28;1648;-89
2022/07/21 07:43:49;;;;;;;;;;;;;;;22.43;69.69;100692.53;5043897;28;1272;-88
2022/07/21 07:46:14;;;;;;;;;;;;;;;22.57;71.56;100690.94;5018060;28;1906;-89
2022/07/21 07:48:41;;;;;;;;;;;;;;;22.70;72.17;100697.28;5017595;28;1197;-88
2022/07/21 07:51:06;;;;;;;;;;;;;;;22.56;71.29;100697.69;5017977;28;1204;-88
2022/07/21 07:53:31;;;;;;;;;;;;;;;22.71;72.10;100704.50;5017782;28;1244;-88
2022/07/21 07:55:57;;;;;;;;;;;;;;;22.75;69.70;100708.22;5013652;28;1417;-88
2022/07/21 07:58:22;;;;;;;;;;;;;;;22.82;71.64;100700.03;5017712;28;878;-89
2022/07/21 08:00:47;;;;;;;;;;;;;;;22.79;70.86;100709.13;5035740;28;1237;-88
2022/07/21 08:03:12;;;;;;;;;;;;;;;22.82;70.55;100705.59;5034406;28;1478;-89
2022/07/21 08:05:38;;;;;;;;;;;;;;;23.00;71.92;100704.09;5008674;28;1392;-87
2022/07/21 08:08:03;;;;;;;;;;;;;;;22.90;69.92;100699.03;5018061;28;1902;-89
2022/07/21 08:10:28;;;;;;;;;;;;;;;22.96;70.59;100707.97;5046322;28;1327;-88
2022/07/21 08:12:53;;;;;;;;;;;;;;;22.88;71.03;100709.75;5024232;28;1528;-88
2022/07/21 08:15:19;;;;;;;;;;;;;;;22.80;69.61;100699.56;5017203;28;1456;-88
2022/07/21 08:17:44;;;;;;;;;;;;;;;22.90;70.66;100693.47;5033245;28;1725;-88
2022/07/21 08:20:09;;;;;;;;;;;;;;;22.99;70.51;100702.47;4999383;28;1309;-87
2022/07/21 08:22:34;;;;;;;;;;;;;;;22.99;70.59;100705.25;5038398;28;899;-88
2022/07/21 08:25:00;;;;;;;;;;;;;;;22.92;70.72;100702.28;5017309;28;1515;-86
2022/07/21 08:27:25;;;;;;;;;;;;;;;22.90;70.48;100698.22;5017982;28;1890;-87
2022/07/21 08:29:50;;;;;;;;;;;;;;;22.88;69.64;100697.81;5017057;28;1380;-87
2022/07/21 08:32:17;;;;;;;;;;;;;;;22.84;70.76;100702.47;5017494;28;1439;-88
2022/07/21 08:34:42;;;;;;;;;;;;;;;22.93;70.45;100705.91;5016835;28;1244;-87
2022/07/21 08:37:08;;;;;;;;;;;;;;;22.86;70.22;100702.91;5016707;28;1420;-87
2022/07/21 08:39:33;;;;;;;;;;;;;;;22.94;71.62;100702.75;5036607;28;1165;-88
2022/07/21 08:41:59;;;;;;;;;;;;;;;23.08;70.95;100699.50;5019014;28;1368;-87
2022/07/21 08:44:25;;;;;;;;;;;;;;;23.19;70.72;100702.56;5043259;28;1352;-86
2022/07/21 08:46:50;;;;;;;;;;;;;;;23.18;69.68;100698.16;5019801;28;1874;-88
2022/07/21 08:49:19;;;;;;;;;;;;;;;22.89;70.50;100699.38;5015161;28;973;-88
2022/07/21 08:51:44;;;;;;;;;;;;;;;22.92;68.28;100688.34;5013355;28;1619;-87
2022/07/21 08:54:09;;;;;;;;;;;;;;;22.89;70.45;100697.41;5034465;28;1383;-87
2022/07/21 08:56:34;;;;;;;;;;;;;;;22.89;70.86;100696.59;5046438;28;1626;-88
2022/07/21 08:58:59;;;;;;;;;;;;;;;22.99;70.65;100701.66;5047222;28;1180;-87
2022/07/21 09:01:26;;;;;;;;;;;;;;;22.87;69.91;100698.97;5018669;28;1408;-86
2022/07/21 09:03:51;;;;;;;;;;;;;;;22.73;69.74;100693.75;5020310;28;1342;-87
2022/07/21 09:06:16;;;;;;;;;;;;;;;22.85;70.13;100682.56;5016523;28;1949;-87
2022/07/21 09:08:46;;;;;;;;;;;;;;;22.64;70.37;100699.50;5025083;28;1662;-87
2022/07/21 09:11:11;;;;;;;;;;;;;;;22.60;70.73;100690.25;5035396;28;1390;-87
2022/07/21 09:13:37;;;;;;;;;;;;;;;22.68;70.87;100688.44;5034461;28;1395;-86
2022/07/21 09:16:02;;;;;;;;;;;;;;;22.65;71.24;100684.38;5017095;28;1228;-88
2022/07/21 09:18:27;;;;;;;;;;;;;;;22.79;72.55;100689.59;5017337;28;1618;-87
2022/07/21 09:20:53;;;;;;;;;;;;;;;22.92;69.12;100681.94;5017552;28;1395;-87
2022/07/21 09:23:20;;;;;;;;;;;;;;;23.11;68.28;100679.25;5032365;28;1602;-88
2022/07/21 09:25:49;;;;;;;;;;;;;;;23.10;69.01;100677.63;5020645;28;1152;-88
2022/07/21 09:28:16;;;;;;;;;;;;;;;23.12;68.19;100685.66;5027126;28;1895;-87
2022/07/21 09:31:01;;;;;;;;;;;;;;;22.98;69.02;100678.50;5013211;28;1499;-86
2022/07/21 09:33:32;;;;;;;;;;;;;;;23.06;68.85;100676.72;5008987;28;1575;-87
2022/07/21 09:35:59;;;;;;;;;;;;;;;23.16;69.20;100687.34;5016213;28;1799;-86
2022/07/21 09:38:25;;;;;;;;;;;;;;;23.16;71.12;100692.94;5036839;28;1102;-87
2022/07/21 09:40:50;;;;;;;;;;;;;;;23.00;69.24;100683.75;5024249;28;1699;-89
2022/07/21 09:43:32;;;;;;;;;;;;;;;23.09;69.64;100691.94;5025542;28;1531;-88
2022/07/21 09:46:05;;;;;;;;;;;;;;;23.30;69.39;100687.72;5040865;28;1407;-90
2022/07/21 09:48:31;;;;;;;;;;;;;;;23.49;68.69;100694.53;5008657;28;1789;-89
2022/07/21 09:50:56;;;;;;;;;;;;;;;23.64;67.99;100685.34;5026711;28;1599;-88
2022/07/21 09:53:21;;;;;;;;;;;;;;;23.71;67.26;100685.50;5018071;28;1378;-89
2022/07/21 09:55:46;;;;;;;;;;;;;;;23.54;67.84;100681.13;5023877;28;1816;-89
2022/07/21 09:58:12;;;;;;;;;;;;;;;23.67;69.31;100679.81;5036352;28;1536;-90
2022/07/21 10:00:37;;;;;;;;;;;;;;;23.79;68.13;100680.88;5032541;28;1357;-89
2022/07/21 10:03:03;;;;;;;;;;;;;;;23.73;67.77;100681.16;5018760;28;1765;-90
2022/07/21 10:05:29;;;;;;;;;;;;;;;23.76;69.03;100671.22;5016509;28;1347;-88
2022/07/21 10:07:54;;;;;;;;;;;;;;;23.84;68.47;100661.00;5028081;28;1967;-90
2022/07/21 10:10:19;;;;;;;;;;;;;;;23.76;68.85;100660.88;5024900;28;1800;-91
2022/07/21 10:12:45;;;;;;;;;;;;;;;23.75;65.40;100648.06;5056443;28;1020;-90
2022/07/21 10:15:10;;;;;;;;;;;;;;;23.70;66.76;100651.16;5026656;28;1503;-91
2022/07/21 10:17:35;;;;;;;;;;;;;;;23.59;65.80;100658.47;5019330;28;960;-91
2022/07/21 10:20:07;;;;;;;;;;;;;;;23.50;65.83;100655.06;5018880;28;1765;-89
2022/07/21 10:22:51;;;;;;;;;;;;;;;23.46;64.63;100651.38;5039969;28;1718;-91
2022/07/21 10:25:17;;;;;;;;;;;;;;;23.40;67.03;100666.78;5020701;28;1543;-90
2022/07/21 10:28:01;;;;;;;;;;;;;;;23.31;69.58;100675.34;5014944;28;1899;-89
2022/07/21 10:30:39;;;;;;;;;;;;;;;23.13;69.51;100676.91;5036320;28;1722;-88
2022/07/21 10:33:04;;;;;;;;;;;;;;;23.18;71.05;100690.59;5028818;28;1764;-87
2022/07/21 10:35:30;;;;;;;;;;;;;;;23.19;70.85;100680.22;5028784;28;1741;-90
2022/07/21 10:37:55;;;;;;;;;;;;;;;23.13;71.95;100684.47;5023649;28;1749;-90
2022/07/21 10:40:21;;;;;;;;;;;;;;;23.04;73.34;100690.25;5018349;28;1225;-90
2022/07/21 10:43:06;;;;;;;;;;;;;;;22.99;74.15;100693.28;5021314;28;1676;-89
2022/07/21 10:45:32;;;;;;;;;;;;;;;22.94;74.50;100688.78;4997809;28;1621;-88
2022/07/21 10:47:58;;;;;;;;;;;;;;;22.96;74.24;100689.25;5026599;28;1886;-89
2022/07/21 10:50:30;;;;;;;;;;;;;;;22.89;73.74;100686.25;5021258;28;1820;-90
2022/07/21 10:53:02;;;;;;;;;;;;;;;22.86;73.68;100684.19;5015255;28;1637;-88
2022/07/21 10:55:29;;;;;;;;;;;;;;;22.81;73.85;100689.22;5039178;28;1443;-89
2022/07/21 10:58:16;;;;;;;;;;;;;;;22.82;72.95;100688.84;5032931;28;1307;-90
2022/07/21 11:00:47;;;;;;;;;;;;;;;22.84;72.17;100691.28;5032409;28;1437;-90
2022/07/21 11:03:14;;;;;;;;;;;;;;;22.79;73.93;100691.56;5001223;28;1366;-91
2022/07/21 11:05:59;;;;;;;;;;;;;;;22.80;74.14;100693.97;5009225;28;1416;-87
2022/07/21 11:08:30;;;;;;;;;;;;;;;22.53;74.80;100692.03;5022253;28;1898;-88
2022/07/21 11:11:06;;;;;;;;;;;;;;;22.55;75.04;100690.47;5038303;28;1404;-88
2022/07/21 11:13:51;;;;;;;;;;;;;;;22.63;74.49;100697.06;5032628;28;1468;-87
2022/07/21 11:16:16;;;;;;;;;;;;;;;22.65;75.70;100686.38;5014128;28;1494;-88
2022/07/21 11:18:42;;;;;;;;;;;;;;;22.72;76.48;100694.13;5020026;28;1494;-88
2022/07/21 11:21:10;;;;;;;;;;;;;;;22.83;76.48;100695.25;5025480;28;1493;-88
2022/07/21 11:23:37;;;;;;;;;;;;;;;23.01;76.13;100680.59;5043009;28;1804;-88
2022/07/21 11:26:02;;;;;;;;;;;;;;;23.09;75.35;100687.16;5019827;28;1765;-89
2022/07/21 11:28:27;;;;;;;;;;;;;;;23.40;75.84;100677.94;5041801;28;1893;-88
2022/07/21 11:31:25;;;;;;;;;;;;;;;23.58;77.46;100676.41;5046844;28;1539;-88
2022/07/21 11:33:50;;;;;;;;;;;;;;;23.64;74.27;100672.19;5002504;28;1781;-89
2022/07/21 11:36:26;;;;;;;;;;;;;;;23.72;76.26;100668.38;5019268;28;1457;-88
2022/07/21 11:38:59;;;;;;;;;;;;;;;23.73;76.05;100658.78;5017645;28;1879;-88
2022/07/21 11:41:24;;;;;;;;;;;;;;;23.82;76.89;100655.00;5045903;28;1366;-89
2022/07/21 11:43:49;;;;;;;;;;;;;;;23.74;76.93;100667.97;5020406;28;1468;-88
2022/07/21 11:46:14;;;;;;;;;;;;;;;23.57;74.74;100663.63;5019401;28;1902;-88
2022/07/21 11:48:40;;;;;;;;;;;;;;;23.45;74.01;100657.31;5044761;28;1302;-89
2022/07/21 11:51:06;;;;;;;;;;;;;;;23.43;74.66;100654.88;5022147;28;1928;-86
2022/07/21 11:53:31;;;;;;;;;;;;;;;23.50;74.81;100657.88;5008859;28;1573;-88
2022/07/21 11:55:57;;;;;;;;;;;;;;;23.63;74.52;100655.78;5005187;28;1675;-89
2022/07/21 11:58:22;;;;;;;;;;;;;;;23.72;73.49;100660.00;5018727;28;1635;-88
2022/07/21 12:00:47;;;;;;;;;;;;;;;23.66;73.92;100647.47;5034898;28;1666;-88
2022/07/21 12:03:13;;;;;;;;;;;;;;;23.63;74.65;100639.00;5037835;28;1485;-88
2022/07/21 12:05:41;;;;;;;;;;;;;;;23.71;72.95;100636.00;5043457;28;1887;-88
2022/07/21 12:08:07;;;;;;;;;;;;;;;23.81;73.33;100619.84;5050759;28;1890;-88
2022/07/21 12:10:32;;;;;;;;;;;;;;;24.00;73.18;100611.44;5038472;28;1570;-87
2022/07/21 12:13:02;;;;;;;;;;;;;;;24.11;73.60;100612.47;5022476;28;1540;-89
2022/07/21 12:15:30;;;;;;;;;;;;;;;24.16;72.65;100606.56;5040412;28;1627;-90
2022/07/21 12:17:57;;;;;;;;;;;;;;;24.13;71.99;100602.53;5018573;28;1430;-89
2022/07/21 12:20:26;;;;;;;;;;;;;;;24.04;72.87;100598.34;5036527;28;1197;-88
2022/07/21 12:22:52;;;;;;;;;;;;;;;23.99;71.73;100607.81;5032522;28;1506;-89
2022/07/21 12:25:18;;;;;;;;;;;;;;;23.99;71.21;100607.00;5027654;28;1753;-88
2022/07/21 12:27:45;;;;;;;;;;;;;;;23.89;71.49;100613.22;5028427;28;1958;-89
2022/07/21 12:30:28;;;;;;;;;;;;;;;23.85;73.42;100618.72;5031787;28;1458;-89
2022/07/21 12:32:53;;;;;;;;;;;;;;;23.97;71.68;100610.19;5036705;28;1697;-90
2022/07/21 12:35:23;;;;;;;;;;;;;;;23.94;72.59;100599.75;5034921;28;1261;-88
2022/07/21 12:37:59;;;;;;;;;;;;;;;23.83;73.54;100597.91;5031850;28;1280;-89
2022/07/21 12:40:25;;;;;;;;;;;;;;;23.67;74.14;100600.75;5017126;28;1323;-89
2022/07/21 12:42:50;;;;;;;;;;;;;;;23.55;74.37;100649.22;5024902;28;1443;-89
2022/07/21 12:45:18;;;;;;;;;;;;;;;22.79;79.68;100716.69;5023718;28;1603;-90